createdAt,value
2018-11-25T00:00:11.826Z,3.90
2018-11-25T00:02:40.178Z,3.90
2018-11-25T00:05:09.102Z,3.90
2018-11-25T00:07:37.796Z,3.90
2018-11-25T00:10:06.951Z,3.80
2018-11-25T00:12:35.350Z,3.80
2018-11-25T00:15:04.068Z,3.80
2018-11-25T00:17:32.388Z,3.80
2018-11-25T00:20:00.706Z,3.80
2018-11-25T00:22:29.073Z,3.80
2018-11-25T00:24:57.409Z,3.80
2018-11-25T00:27:25.753Z,3.90
2018-11-25T00:29:54.128Z,3.80
2018-11-25T00:32:22.481Z,3.80
2018-11-25T00:34:51.136Z,3.80
2018-11-25T00:37:19.741Z,3.80
2018-11-25T00:39:48.018Z,3.80
2018-11-25T00:42:16.328Z,3.80
2018-11-25T00:44:45.105Z,3.80
2018-11-25T00:47:13.409Z,3.70
2018-11-25T00:49:41.781Z,3.70
2018-11-25T00:52:10.531Z,3.70
2018-11-25T00:54:38.906Z,3.80
2018-11-25T00:57:07.237Z,3.70
2018-11-25T00:59:35.711Z,3.70
2018-11-25T01:02:04.076Z,3.70
2018-11-25T01:04:32.398Z,3.70
2018-11-25T01:07:01.016Z,3.70
2018-11-25T01:09:29.332Z,3.70
2018-11-25T01:11:57.649Z,3.60
2018-11-25T01:14:26.019Z,3.60
2018-11-25T01:16:54.318Z,3.60
2018-11-25T01:19:22.640Z,3.60
2018-11-25T01:21:50.953Z,3.60
2018-11-25T01:24:19.264Z,3.70
2018-11-25T01:26:47.589Z,3.70
2018-11-25T01:29:16.012Z,3.70
2018-11-25T01:31:44.427Z,3.60
2018-11-25T01:34:12.761Z,3.60
2018-11-25T01:36:42.105Z,3.60
2018-11-25T01:39:10.425Z,3.60
2018-11-25T01:41:38.766Z,3.70
2018-11-25T01:44:07.557Z,3.60
2018-11-25T01:46:35.868Z,3.60
2018-11-25T01:49:04.196Z,3.60
2018-11-25T01:51:32.857Z,3.70
2018-11-25T01:54:01.169Z,3.70
2018-11-25T01:56:29.465Z,3.60
2018-11-25T01:58:57.844Z,3.60
2018-11-25T02:01:26.147Z,3.60
2018-11-25T02:03:54.464Z,3.60
2018-11-25T02:06:23.158Z,3.70
2018-11-25T02:08:51.481Z,3.70
2018-11-25T02:11:19.902Z,3.60
2018-11-25T02:13:48.942Z,3.60
2018-11-25T02:16:17.309Z,3.60
2018-11-25T02:18:45.617Z,3.60
2018-11-25T02:21:14.121Z,3.60
2018-11-25T02:23:43.628Z,3.60
2018-11-25T02:26:12.065Z,3.60
2018-11-25T02:28:40.564Z,3.60
2018-11-25T02:31:08.885Z,3.60
2018-11-25T02:33:37.225Z,3.60
2018-11-25T02:36:06.160Z,3.60
2018-11-25T02:38:34.557Z,3.60
2018-11-25T02:41:02.869Z,3.60
2018-11-25T02:43:31.269Z,3.60
2018-11-25T02:45:59.579Z,3.60
2018-11-25T02:48:27.897Z,3.60
2018-11-25T02:50:56.765Z,3.60
2018-11-25T02:53:25.085Z,3.60
2018-11-25T02:55:53.409Z,3.60
2018-11-25T02:58:22.295Z,3.60
2018-11-25T03:00:50.629Z,3.70
2018-11-25T03:03:18.987Z,3.70
2018-11-25T03:05:47.652Z,3.60
2018-11-25T03:08:15.953Z,3.60
2018-11-25T03:10:44.301Z,3.60
2018-11-25T03:13:12.921Z,3.60
2018-11-25T03:15:42.044Z,3.50
2018-11-25T03:18:10.449Z,3.50
2018-11-25T03:20:38.789Z,3.50
2018-11-25T03:23:07.165Z,3.50
2018-11-25T03:25:35.488Z,3.50
2018-11-25T03:28:03.850Z,3.60
2018-11-25T03:30:32.173Z,3.50
2018-11-25T03:33:00.488Z,3.50
2018-11-25T03:35:29.520Z,3.50
2018-11-25T03:37:57.826Z,3.60
2018-11-25T03:40:26.245Z,3.60
2018-11-25T03:42:54.600Z,3.60
2018-11-25T03:45:22.984Z,3.60
2018-11-25T03:47:51.336Z,3.60
2018-11-25T03:50:19.769Z,3.60
2018-11-25T03:52:48.209Z,3.70
2018-11-25T03:55:17.057Z,3.70
2018-11-25T03:57:45.424Z,3.80
2018-11-25T04:00:16.908Z,3.80
2018-11-25T04:02:45.348Z,3.70
2018-11-25T04:05:14.681Z,3.60
2018-11-25T04:07:43.646Z,3.70
2018-11-25T04:10:15.388Z,3.70
2018-11-25T04:12:43.732Z,3.70
2018-11-25T04:15:16.251Z,3.70
2018-11-25T04:17:44.735Z,3.70
2018-11-25T04:20:15.834Z,3.70
2018-11-25T04:22:44.156Z,3.70
2018-11-25T04:25:12.811Z,3.70
2018-11-25T04:27:41.445Z,3.70
2018-11-25T04:30:11.056Z,3.70
2018-11-25T04:32:39.392Z,3.60
2018-11-25T04:35:09.039Z,3.70
2018-11-25T04:37:38.004Z,3.70
2018-11-25T04:40:07.975Z,3.60
2018-11-25T04:42:36.933Z,3.60
2018-11-25T04:45:05.773Z,3.70
2018-11-25T04:47:34.117Z,3.60
2018-11-25T04:50:02.486Z,3.60
2018-11-25T04:52:30.815Z,3.60
2018-11-25T04:54:59.109Z,3.60
2018-11-25T04:57:27.410Z,3.60
2018-11-25T04:59:55.727Z,3.70
2018-11-25T05:02:24.068Z,3.60
2018-11-25T05:04:52.718Z,3.60
2018-11-25T05:07:21.004Z,3.60
2018-11-25T05:09:49.304Z,3.50
2018-11-25T05:12:17.740Z,3.50
2018-11-25T05:14:46.046Z,3.60
2018-11-25T05:17:14.357Z,3.60
2018-11-25T05:19:43.373Z,3.60
2018-11-25T05:22:11.720Z,3.50
2018-11-25T05:24:40.037Z,3.50
2018-11-25T05:27:08.631Z,3.50
2018-11-25T05:29:37.006Z,3.50
2018-11-25T05:32:05.819Z,3.50
2018-11-25T05:34:34.171Z,3.50
2018-11-25T05:37:02.488Z,3.50
2018-11-25T05:39:30.789Z,3.50
2018-11-25T05:41:59.503Z,3.50
2018-11-25T05:44:28.134Z,3.50
2018-11-25T05:46:56.468Z,3.50
2018-11-25T05:49:24.876Z,3.50
2018-11-25T05:51:54.725Z,3.50
2018-11-25T05:54:24.168Z,3.50
2018-11-25T05:56:52.617Z,3.50
2018-11-25T05:59:21.049Z,3.60
2018-11-25T06:01:54.630Z,3.60
2018-11-25T06:04:22.933Z,3.60
2018-11-25T06:06:51.667Z,3.60
2018-11-25T06:09:24.813Z,3.60
2018-11-25T06:11:54.623Z,3.60
2018-11-25T06:14:25.327Z,3.60
2018-11-25T06:16:54.403Z,3.60
2018-11-25T06:19:22.769Z,3.60
2018-11-25T06:21:51.231Z,3.60
2018-11-25T06:24:19.897Z,3.60
2018-11-25T06:26:48.566Z,3.60
2018-11-25T06:29:17.569Z,3.60
2018-11-25T06:31:46.378Z,3.50
2018-11-25T06:34:14.952Z,3.50
2018-11-25T06:36:43.552Z,3.50
2018-11-25T06:39:12.523Z,3.60
2018-11-25T06:41:40.936Z,3.60
2018-11-25T06:44:10.041Z,3.60
2018-11-25T06:46:38.633Z,3.60
2018-11-25T06:49:07.510Z,3.60
2018-11-25T06:51:37.046Z,3.50
2018-11-25T06:54:05.516Z,3.60
2018-11-25T06:56:33.880Z,3.60
2018-11-25T06:59:02.306Z,3.60
2018-11-25T07:01:30.598Z,3.70
2018-11-25T07:03:58.912Z,3.60
2018-11-25T07:06:27.581Z,3.70
2018-11-25T07:08:56.028Z,3.60
2018-11-25T07:11:24.461Z,3.60
2018-11-25T07:13:53.197Z,3.60
2018-11-25T07:16:24.393Z,3.60
2018-11-25T07:18:53.352Z,3.60
2018-11-25T07:21:21.721Z,3.70
2018-11-25T07:23:50.280Z,3.70
2018-11-25T07:26:19.134Z,3.60
2018-11-25T07:28:47.597Z,3.60
2018-11-25T07:31:23.406Z,3.60
2018-11-25T07:33:52.079Z,3.60
2018-11-25T07:36:20.480Z,3.60
2018-11-25T07:38:49.613Z,3.60
2018-11-25T07:41:18.061Z,3.60
2018-11-25T07:43:46.782Z,3.60
2018-11-25T07:46:15.337Z,3.60
2018-11-25T07:48:44.412Z,3.60
2018-11-25T07:51:12.772Z,3.50
2018-11-25T07:53:41.276Z,3.60
2018-11-25T07:56:09.625Z,3.60
2018-11-25T07:58:38.272Z,3.50
2018-11-25T08:01:06.610Z,3.50
2018-11-25T08:03:35.288Z,3.60
2018-11-25T08:06:03.613Z,3.50
2018-11-25T08:08:32.604Z,3.50
2018-11-25T08:11:00.984Z,3.60
2018-11-25T08:13:29.308Z,3.60
2018-11-25T08:15:57.993Z,3.60
2018-11-25T08:18:26.288Z,3.60
2018-11-25T08:20:54.588Z,3.70
2018-11-25T08:23:22.943Z,3.70
2018-11-25T08:25:51.266Z,3.70
2018-11-25T08:28:19.598Z,3.80
2018-11-25T08:30:48.643Z,3.80
2018-11-25T08:33:17.121Z,3.80
2018-11-25T08:35:45.433Z,3.80
2018-11-25T08:38:13.781Z,3.90
2018-11-25T08:40:42.147Z,3.80
2018-11-25T08:43:10.520Z,3.80
2018-11-25T08:45:38.977Z,3.80
2018-11-25T08:48:07.464Z,3.90
2018-11-25T08:50:35.869Z,3.80
2018-11-25T08:53:04.330Z,3.80
2018-11-25T08:55:32.677Z,3.80
2018-11-25T08:58:01.033Z,3.90
2018-11-25T09:00:29.784Z,3.80
2018-11-25T09:02:58.258Z,3.90
2018-11-25T09:05:26.733Z,4.00
2018-11-25T09:07:55.162Z,4.00
2018-11-25T09:10:23.625Z,4.00
2018-11-25T09:12:55.744Z,4.00
2018-11-25T09:15:28.993Z,4.00
2018-11-25T09:17:57.439Z,3.90
2018-11-25T09:20:25.905Z,4.00
2018-11-25T09:22:54.649Z,4.00
2018-11-25T09:25:28.025Z,4.00
2018-11-25T09:27:57.429Z,4.00
2018-11-25T09:30:27.888Z,4.00
2018-11-25T09:32:56.308Z,4.10
2018-11-25T09:35:25.549Z,4.20
2018-11-25T09:37:53.959Z,4.20
2018-11-25T09:40:26.282Z,4.20
2018-11-25T09:42:54.584Z,4.20
2018-11-25T09:45:22.981Z,4.20
2018-11-25T09:47:51.454Z,4.20
2018-11-25T09:50:21.698Z,4.20
2018-11-25T09:52:50.258Z,4.20
2018-11-25T09:55:23.168Z,4.20
2018-11-25T09:57:54.533Z,4.20
2018-11-25T10:00:37.011Z,4.20
2018-11-25T10:03:05.314Z,4.30
2018-11-25T10:05:33.661Z,4.20
2018-11-25T10:08:02.600Z,4.30
2018-11-25T10:10:30.948Z,4.30
2018-11-25T10:12:59.260Z,4.30
2018-11-25T10:15:28.792Z,4.40
2018-11-25T10:17:59.759Z,4.40
2018-11-25T10:20:27.099Z,4.40
2018-11-25T10:22:55.662Z,4.50
2018-11-25T10:25:24.149Z,4.60
2018-11-25T10:27:53.109Z,4.60
2018-11-25T10:30:23.134Z,4.70
2018-11-25T10:32:53.440Z,4.70
2018-11-25T10:35:23.443Z,4.70
2018-11-25T10:37:51.821Z,4.80
2018-11-25T10:40:22.385Z,4.80
2018-11-25T10:42:50.714Z,4.80
2018-11-25T10:45:20.697Z,4.90
2018-11-25T10:47:49.145Z,4.90
2018-11-25T10:50:18.316Z,4.90
2018-11-25T10:52:46.744Z,4.90
2018-11-25T10:55:16.364Z,5.00
2018-11-25T10:57:45.532Z,4.90
2018-11-25T11:00:24.807Z,4.80
2018-11-25T11:02:58.435Z,4.80
2018-11-25T11:05:32.009Z,4.90
2018-11-25T11:08:00.312Z,4.90
2018-11-25T11:10:28.693Z,5.00
2018-11-25T11:12:57.197Z,5.00
2018-11-25T11:15:25.708Z,4.90
2018-11-25T11:17:54.289Z,4.90
2018-11-25T11:20:22.763Z,5.00
2018-11-25T11:22:51.202Z,5.00
2018-11-25T11:25:19.761Z,5.00
2018-11-25T11:27:48.240Z,5.00
2018-11-25T11:30:16.943Z,5.00
2018-11-25T11:32:46.714Z,4.90
2018-11-25T11:35:15.168Z,5.00
2018-11-25T11:37:44.167Z,5.00
2018-11-25T11:40:14.316Z,5.00
2018-11-25T11:42:43.006Z,5.00
2018-11-25T11:45:14.308Z,5.00
2018-11-25T11:47:43.660Z,5.00
2018-11-25T11:50:15.261Z,5.00
2018-11-25T11:52:44.522Z,4.90
2018-11-25T11:55:15.286Z,4.80
2018-11-25T11:57:44.901Z,4.80
2018-11-25T12:00:18.916Z,4.80
2018-11-25T12:02:47.419Z,4.90
2018-11-25T12:05:15.813Z,4.90
2018-11-25T12:07:45.333Z,5.00
2018-11-25T12:10:14.753Z,5.00
2018-11-25T12:12:43.077Z,5.00
2018-11-25T12:15:19.994Z,5.00
2018-11-25T12:17:48.381Z,4.90
2018-11-25T12:20:16.692Z,4.80
2018-11-25T12:22:45.745Z,4.80
2018-11-25T12:25:15.160Z,4.80
2018-11-25T12:27:43.561Z,4.80
2018-11-25T12:30:13.993Z,4.80
2018-11-25T12:32:42.990Z,4.90
2018-11-25T12:35:12.570Z,4.90
2018-11-25T12:37:42.576Z,4.90
2018-11-25T12:40:13.071Z,4.90
2018-11-25T12:42:42.628Z,4.90
2018-11-25T12:45:14.174Z,4.80
2018-11-25T12:47:42.854Z,4.90
2018-11-25T12:50:16.937Z,4.90
2018-11-25T12:52:45.642Z,4.90
2018-11-25T12:55:15.992Z,5.00
2018-11-25T12:57:44.985Z,4.90
2018-11-25T13:00:28.169Z,4.90
2018-11-25T13:02:56.502Z,4.90
2018-11-25T13:05:24.829Z,4.90
2018-11-25T13:07:53.128Z,4.90
2018-11-25T13:10:21.879Z,4.90
2018-11-25T13:12:50.193Z,4.90
2018-11-25T13:15:18.603Z,4.90
2018-11-25T13:17:46.989Z,4.90
2018-11-25T13:20:16.553Z,4.90
2018-11-25T13:22:44.844Z,4.90
2018-11-25T13:25:14.556Z,4.90
2018-11-25T13:27:42.897Z,4.90
2018-11-25T13:30:17.576Z,5.00
2018-11-25T13:32:46.032Z,4.90
2018-11-25T13:35:14.348Z,4.80
2018-11-25T13:37:43.129Z,4.90
2018-11-25T13:40:13.207Z,4.90
2018-11-25T13:42:41.570Z,4.90
2018-11-25T13:45:10.502Z,4.90
2018-11-25T13:47:39.086Z,4.90
2018-11-25T13:50:09.537Z,4.90
2018-11-25T13:52:38.884Z,4.90
2018-11-25T13:55:09.325Z,4.90
2018-11-25T13:57:38.463Z,4.90
2018-11-25T14:00:15.021Z,4.80
2018-11-25T14:02:43.512Z,4.80
2018-11-25T14:05:11.833Z,4.70
2018-11-25T14:07:41.688Z,4.70
2018-11-25T14:10:19.926Z,4.70
2018-11-25T14:12:48.718Z,4.80
2018-11-25T14:15:17.093Z,4.80
2018-11-25T14:17:45.554Z,4.70
2018-11-25T14:20:13.957Z,4.70
2018-11-25T14:22:42.802Z,4.70
2018-11-25T14:25:16.292Z,4.70
2018-11-25T14:27:45.185Z,4.80
2018-11-25T14:30:15.355Z,4.70
2018-11-25T14:32:44.469Z,4.70
2018-11-25T14:35:14.382Z,4.70
2018-11-25T14:37:42.767Z,4.70
2018-11-25T14:40:13.186Z,4.70
2018-11-25T14:42:41.519Z,4.70
2018-11-25T14:45:11.845Z,4.70
2018-11-25T14:47:40.226Z,4.70
2018-11-25T14:50:12.187Z,4.70
2018-11-25T14:52:41.716Z,4.70
2018-11-25T14:55:11.279Z,4.70
2018-11-25T14:57:40.309Z,4.70
2018-11-25T15:00:12.596Z,4.70
2018-11-25T15:02:40.949Z,4.70
2018-11-25T15:05:16.807Z,4.70
2018-11-25T15:07:45.169Z,4.70
2018-11-25T15:10:13.620Z,4.60
2018-11-25T15:12:42.717Z,4.70
2018-11-25T15:15:12.709Z,4.70
2018-11-25T15:17:42.473Z,4.70
2018-11-25T15:20:11.859Z,4.70
2018-11-25T15:22:41.489Z,4.70
2018-11-25T15:25:12.477Z,4.70
2018-11-25T15:27:40.961Z,4.70
2018-11-25T15:30:10.803Z,4.70
2018-11-25T15:32:39.618Z,4.70
2018-11-25T15:35:09.494Z,4.70
2018-11-25T15:37:40.105Z,4.70
2018-11-25T15:40:12.856Z,4.70
2018-11-25T15:42:41.645Z,4.70
2018-11-25T15:45:11.057Z,4.70
2018-11-25T15:47:41.670Z,4.70
2018-11-25T15:50:11.686Z,4.80
2018-11-25T15:52:40.157Z,4.80
2018-11-25T15:55:14.462Z,4.80
2018-11-25T15:57:44.145Z,4.80
2018-11-25T16:00:17.394Z,4.80
2018-11-25T16:02:46.989Z,4.80
2018-11-25T16:05:19.227Z,4.80
2018-11-25T16:07:47.715Z,4.80
2018-11-25T16:10:16.165Z,4.80
2018-11-25T16:12:46.863Z,4.90
2018-11-25T16:15:17.335Z,4.80
2018-11-25T16:17:45.766Z,4.80
2018-11-25T16:20:16.689Z,4.80
2018-11-25T16:22:45.697Z,4.80
2018-11-25T16:25:22.021Z,4.80
2018-11-25T16:27:51.842Z,4.90
2018-11-25T16:30:21.392Z,4.90
2018-11-25T16:32:49.764Z,4.90
2018-11-25T16:35:18.961Z,4.80
2018-11-25T16:37:47.319Z,4.80
2018-11-25T16:40:16.912Z,4.80
2018-11-25T16:42:45.388Z,4.80
2018-11-25T16:45:15.648Z,4.80
2018-11-25T16:47:44.202Z,4.70
2018-11-25T16:50:14.835Z,4.70
2018-11-25T16:52:43.197Z,4.70
2018-11-25T16:55:13.814Z,4.70
2018-11-25T16:57:43.388Z,4.70
2018-11-25T17:00:15.696Z,4.70
2018-11-25T17:02:44.244Z,4.70
2018-11-25T17:05:14.265Z,4.80
2018-11-25T17:07:44.149Z,4.80
2018-11-25T17:10:14.314Z,4.70
2018-11-25T17:12:42.808Z,4.70
2018-11-25T17:15:17.536Z,4.70
2018-11-25T17:17:48.476Z,4.70
2018-11-25T17:20:20.103Z,4.80
2018-11-25T17:22:48.921Z,4.70
2018-11-25T17:25:17.248Z,4.70
2018-11-25T17:27:47.516Z,4.70
2018-11-25T17:30:16.981Z,4.70
2018-11-25T17:32:46.046Z,4.70
2018-11-25T17:35:20.147Z,4.70
2018-11-25T17:37:48.648Z,4.70
2018-11-25T17:40:17.104Z,4.70
2018-11-25T17:42:46.461Z,4.70
2018-11-25T17:45:14.915Z,4.70
2018-11-25T17:47:43.547Z,4.70
2018-11-25T17:50:18.625Z,4.70
2018-11-25T17:52:47.645Z,4.70
2018-11-25T17:55:16.636Z,4.70
2018-11-25T17:57:45.622Z,4.80
2018-11-25T18:00:19.773Z,4.80
2018-11-25T18:02:48.460Z,4.70
2018-11-25T18:05:16.776Z,4.70
2018-11-25T18:07:45.077Z,4.70
2018-11-25T18:10:14.537Z,4.70
2018-11-25T18:12:42.940Z,4.70
2018-11-25T18:15:13.089Z,4.80
2018-11-25T18:17:44.185Z,4.80
2018-11-25T18:20:12.605Z,4.70
2018-11-25T18:22:44.833Z,4.70
2018-11-25T18:25:13.137Z,4.80
2018-11-25T18:27:41.472Z,4.80
2018-11-25T18:30:14.232Z,4.80
2018-11-25T18:32:43.276Z,4.80
2018-11-25T18:35:11.575Z,4.80
2018-11-25T18:37:39.945Z,4.80
2018-11-25T18:40:12.401Z,4.80
2018-11-25T18:42:41.604Z,4.80
2018-11-25T18:45:11.610Z,4.80
2018-11-25T18:47:40.116Z,4.80
2018-11-25T18:50:10.725Z,4.80
2018-11-25T18:52:39.096Z,4.80
2018-11-25T18:55:06.373Z,4.80
2018-11-25T18:57:35.088Z,4.80
2018-11-25T19:00:04.735Z,4.80
2018-11-25T19:02:40.113Z,4.80
2018-11-25T19:05:08.490Z,4.80
2018-11-25T19:07:37.145Z,4.90
2018-11-25T19:10:11.524Z,4.90
2018-11-25T19:12:44.224Z,4.90
2018-11-25T19:15:10.593Z,4.90
2018-11-25T19:17:39.002Z,4.90
2018-11-25T19:20:12.020Z,4.90
2018-11-25T19:22:41.857Z,4.90
2018-11-25T19:25:11.846Z,4.90
2018-11-25T19:27:40.224Z,4.90
2018-11-25T19:30:12.052Z,4.90
2018-11-25T19:32:41.076Z,4.90
2018-11-25T19:35:10.856Z,4.90
2018-11-25T19:37:40.238Z,4.90
2018-11-25T19:40:13.490Z,4.90
2018-11-25T19:42:42.635Z,4.90
2018-11-25T19:45:13.784Z,4.90
2018-11-25T19:47:42.673Z,4.90
2018-11-25T19:50:17.560Z,4.90
2018-11-25T19:52:46.225Z,4.90
2018-11-25T19:55:14.537Z,5.00
2018-11-25T19:57:42.930Z,4.90
2018-11-25T20:00:12.879Z,4.90
2018-11-25T20:02:41.316Z,4.90
2018-11-25T20:05:12.818Z,5.00
2018-11-25T20:07:42.387Z,5.00
2018-11-25T20:10:15.581Z,5.00
2018-11-25T20:12:45.618Z,5.00
2018-11-25T20:15:15.268Z,5.00
2018-11-25T20:17:44.174Z,5.00
2018-11-25T20:20:14.719Z,5.00
2018-11-25T20:22:44.161Z,5.00
2018-11-25T20:25:13.223Z,5.00
2018-11-25T20:27:42.843Z,5.00
2018-11-25T20:30:12.873Z,5.10
2018-11-25T20:32:46.482Z,5.10
2018-11-25T20:35:14.804Z,5.00
2018-11-25T20:37:48.909Z,5.00
2018-11-25T20:40:17.729Z,5.00
2018-11-25T20:42:46.164Z,5.00
2018-11-25T20:45:21.035Z,5.00
2018-11-25T20:47:49.405Z,5.00
2018-11-25T20:50:17.841Z,5.00
2018-11-25T20:52:51.665Z,5.00
2018-11-25T20:55:20.024Z,5.10
2018-11-25T20:57:48.340Z,5.10
2018-11-25T21:00:19.852Z,5.10
2018-11-25T21:02:48.202Z,5.10
2018-11-25T21:05:16.621Z,5.10
2018-11-25T21:07:45.241Z,5.10
2018-11-25T21:10:15.622Z,5.00
2018-11-25T21:12:45.578Z,5.00
2018-11-25T21:15:13.893Z,5.10
2018-11-25T21:17:42.729Z,5.00
2018-11-25T21:20:14.048Z,5.10
2018-11-25T21:22:42.397Z,5.10
2018-11-25T21:25:15.193Z,5.10
2018-11-25T21:27:43.620Z,5.10
2018-11-25T21:30:14.169Z,5.10
2018-11-25T21:32:43.317Z,5.10
2018-11-25T21:35:12.406Z,5.10
2018-11-25T21:37:40.754Z,5.10
2018-11-25T21:40:11.728Z,5.10
2018-11-25T21:42:40.097Z,5.10
2018-11-25T21:45:10.904Z,5.10
2018-11-25T21:47:40.562Z,5.10
2018-11-25T21:50:12.782Z,5.10
2018-11-25T21:52:42.388Z,5.10
2018-11-25T21:55:11.828Z,5.10
2018-11-25T21:57:40.145Z,5.10
2018-11-25T22:00:10.425Z,5.10
2018-11-25T22:02:38.842Z,5.10
2018-11-25T22:05:08.131Z,5.10
2018-11-25T22:07:37.495Z,5.10
2018-11-25T22:10:08.308Z,5.10
2018-11-25T22:12:37.617Z,5.20
2018-11-25T22:15:07.954Z,5.20
2018-11-25T22:17:36.348Z,5.20
2018-11-25T22:20:06.713Z,5.20
2018-11-25T22:22:35.064Z,5.20
2018-11-25T22:25:03.482Z,5.20
2018-11-25T22:27:31.821Z,5.20
2018-11-25T22:30:00.152Z,5.20
2018-11-25T22:32:28.502Z,5.20
2018-11-25T22:34:56.925Z,5.20
2018-11-25T22:37:25.237Z,5.20
2018-11-25T22:39:53.547Z,5.20
2018-11-25T22:42:21.946Z,5.20
2018-11-25T22:44:50.272Z,5.20
2018-11-25T22:47:18.594Z,5.20
2018-11-25T22:49:47.516Z,5.20
2018-11-25T22:52:15.885Z,5.20
2018-11-25T22:54:44.796Z,5.20
2018-11-25T22:57:13.135Z,5.20
2018-11-25T22:59:41.509Z,5.30
2018-11-25T23:02:09.828Z,5.30
2018-11-25T23:04:49.750Z,5.30
2018-11-25T23:07:18.042Z,5.30
2018-11-25T23:09:46.415Z,5.30
2018-11-25T23:12:14.849Z,5.30
2018-11-25T23:14:43.241Z,5.30
2018-11-25T23:17:11.537Z,5.30
2018-11-25T23:19:39.872Z,5.30
2018-11-25T23:22:08.176Z,5.30
2018-11-25T23:24:37.077Z,5.30
2018-11-25T23:27:05.670Z,5.40
2018-11-25T23:29:33.968Z,5.40
2018-11-25T23:32:02.304Z,5.40
2018-11-25T23:34:30.902Z,5.40
2018-11-25T23:36:59.197Z,5.40
2018-11-25T23:39:27.521Z,5.40
2018-11-25T23:41:56.277Z,5.40
2018-11-25T23:44:24.586Z,5.40
2018-11-25T23:46:52.887Z,5.40
2018-11-25T23:49:21.571Z,5.40
2018-11-25T23:51:49.949Z,5.40
2018-11-25T23:54:18.261Z,5.40
2018-11-25T23:56:46.601Z,5.40
2018-11-25T23:59:14.899Z,5.40
